sensor_id;sensor_type;location;lat;lon;timestamp;P1;durP1;ratioP1;P2;durP2;ratioP2
30519;SDS011;17300;50.374;8.006;2023-03-01T00:00:19;10.37;;;7.83;;
30519;SDS011;17300;50.374;8.006;2023-03-01T00:02:46;9.33;;;7.73;;
30519;SDS011;17300;50.374;8.006;2023-03-01T00:05:20;10.07;;;7.80;;
30519;SDS011;17300;50.374;8.006;2023-03-01T00:07:52;9.73;;;8.10;;
30519;SDS011;17300;50.374;8.006;2023-03-01T00:10:18;10.77;;;7.97;;
30519;SDS011;17300;50.374;8.006;2023-03-01T00:12:45;10.50;;;7.80;;
30519;SDS011;17300;50.374;8.006;2023-03-01T00:15:12;9.13;;;7.60;;
30519;SDS011;17300;50.374;8.006;2023-03-01T00:17:38;9.17;;;7.77;;
30519;SDS011;17300;50.374;8.006;2023-03-01T00:20:05;9.17;;;7.80;;
30519;SDS011;17300;50.374;8.006;2023-03-01T00:22:36;10.90;;;7.60;;
30519;SDS011;17300;50.374;8.006;2023-03-01T00:25:03;8.87;;;7.97;;
30519;SDS011;17300;50.374;8.006;2023-03-01T00:27:30;12.47;;;8.37;;
30519;SDS011;17300;50.374;8.006;2023-03-01T00:29:57;11.30;;;8.13;;
30519;SDS011;17300;50.374;8.006;2023-03-01T00:32:23;13.30;;;8.63;;
30519;SDS011;17300;50.374;8.006;2023-03-01T00:34:50;10.43;;;8.57;;
30519;SDS011;17300;50.374;8.006;2023-03-01T00:37:20;10.70;;;8.60;;
30519;SDS011;17300;50.374;8.006;2023-03-01T00:39:48;11.80;;;8.40;;
30519;SDS011;17300;50.374;8.006;2023-03-01T00:42:15;10.27;;;8.30;;
30519;SDS011;17300;50.374;8.006;2023-03-01T00:44:42;13.63;;;9.13;;
30519;SDS011;17300;50.374;8.006;2023-03-01T00:47:08;11.23;;;8.07;;
30519;SDS011;17300;50.374;8.006;2023-03-01T00:49:35;12.17;;;7.80;;
30519;SDS011;17300;50.374;8.006;2023-03-01T00:52:02;10.00;;;7.90;;
30519;SDS011;17300;50.374;8.006;2023-03-01T00:54:28;12.67;;;8.23;;
30519;SDS011;17300;50.374;8.006;2023-03-01T00:56:56;10.03;;;8.17;;
30519;SDS011;17300;50.374;8.006;2023-03-01T00:59:23;9.57;;;7.70;;
30519;SDS011;17300;50.374;8.006;2023-03-01T01:01:50;9.93;;;7.63;;
30519;SDS011;17300;50.374;8.006;2023-03-01T01:04:16;10.67;;;8.03;;
30519;SDS011;17300;50.374;8.006;2023-03-01T01:06:43;14.17;;;7.87;;
30519;SDS011;17300;50.374;8.006;2023-03-01T01:09:12;11.23;;;8.33;;
30519;SDS011;17300;50.374;8.006;2023-03-01T01:11:42;11.03;;;7.70;;
30519;SDS011;17300;50.374;8.006;2023-03-01T01:14:10;8.60;;;6.80;;
30519;SDS011;17300;50.374;8.006;2023-03-01T01:16:37;11.13;;;7.40;;
30519;SDS011;17300;50.374;8.006;2023-03-01T01:19:04;9.63;;;7.37;;
30519;SDS011;17300;50.374;8.006;2023-03-01T01:21:30;9.07;;;6.83;;
30519;SDS011;17300;50.374;8.006;2023-03-01T01:23:57;9.43;;;7.23;;
30519;SDS011;17300;50.374;8.006;2023-03-01T01:26:25;8.27;;;6.23;;
30519;SDS011;17300;50.374;8.006;2023-03-01T01:28:54;9.40;;;7.10;;
30519;SDS011;17300;50.374;8.006;2023-03-01T01:31:23;8.97;;;6.70;;
30519;SDS011;17300;50.374;8.006;2023-03-01T01:33:50;8.33;;;6.83;;
30519;SDS011;17300;50.374;8.006;2023-03-01T01:36:17;9.20;;;7.53;;
30519;SDS011;17300;50.374;8.006;2023-03-01T01:38:44;7.83;;;7.03;;
30519;SDS011;17300;50.374;8.006;2023-03-01T01:41:11;9.20;;;7.23;;
30519;SDS011;17300;50.374;8.006;2023-03-01T01:43:39;8.97;;;7.23;;
30519;SDS011;17300;50.374;8.006;2023-03-01T01:46:10;8.73;;;7.27;;
30519;SDS011;17300;50.374;8.006;2023-03-01T01:48:45;8.10;;;7.03;;
30519;SDS011;17300;50.374;8.006;2023-03-01T01:51:17;10.27;;;7.23;;
30519;SDS011;17300;50.374;8.006;2023-03-01T01:53:47;8.10;;;7.30;;
30519;SDS011;17300;50.374;8.006;2023-03-01T01:56:19;8.60;;;7.70;;
30519;SDS011;17300;50.374;8.006;2023-03-01T01:58:47;10.77;;;7.73;;
30519;SDS011;17300;50.374;8.006;2023-03-01T02:01:14;9.17;;;7.27;;
30519;SDS011;17300;50.374;8.006;2023-03-01T02:03:41;8.00;;;6.77;;
30519;SDS011;17300;50.374;8.006;2023-03-01T02:06:12;10.83;;;7.17;;
30519;SDS011;17300;50.374;8.006;2023-03-01T02:08:44;8.50;;;7.00;;
30519;SDS011;17300;50.374;8.006;2023-03-01T02:11:14;8.00;;;6.70;;
30519;SDS011;17300;50.374;8.006;2023-03-01T02:13:41;8.43;;;7.00;;
30519;SDS011;17300;50.374;8.006;2023-03-01T02:16:09;8.93;;;7.23;;
30519;SDS011;17300;50.374;8.006;2023-03-01T02:18:37;8.87;;;7.37;;
30519;SDS011;17300;50.374;8.006;2023-03-01T02:21:08;7.97;;;6.87;;
30519;SDS011;17300;50.374;8.006;2023-03-01T02:23:43;8.33;;;6.83;;
30519;SDS011;17300;50.374;8.006;2023-03-01T02:26:14;7.33;;;6.50;;
30519;SDS011;17300;50.374;8.006;2023-03-01T02:28:48;7.97;;;6.43;;
30519;SDS011;17300;50.374;8.006;2023-03-01T02:31:16;6.47;;;5.80;;
30519;SDS011;17300;50.374;8.006;2023-03-01T02:34:02;10.63;;;6.00;;
30519;SDS011;17300;50.374;8.006;2023-03-01T02:36:31;10.60;;;5.90;;
30519;SDS011;17300;50.374;8.006;2023-03-01T02:39:02;9.77;;;6.53;;
30519;SDS011;17300;50.374;8.006;2023-03-01T02:41:33;7.57;;;6.07;;
30519;SDS011;17300;50.374;8.006;2023-03-01T02:44:03;6.70;;;5.87;;
30519;SDS011;17300;50.374;8.006;2023-03-01T02:46:31;6.87;;;6.10;;
30519;SDS011;17300;50.374;8.006;2023-03-01T02:48:58;6.77;;;5.83;;
30519;SDS011;17300;50.374;8.006;2023-03-01T02:51:27;8.67;;;5.77;;
30519;SDS011;17300;50.374;8.006;2023-03-01T02:54:09;7.13;;;5.73;;
30519;SDS011;17300;50.374;8.006;2023-03-01T02:56:42;6.87;;;5.73;;
30519;SDS011;17300;50.374;8.006;2023-03-01T02:59:14;6.37;;;5.53;;
30519;SDS011;17300;50.374;8.006;2023-03-01T03:01:42;7.20;;;5.87;;
30519;SDS011;17300;50.374;8.006;2023-03-01T03:04:11;7.87;;;5.80;;
30519;SDS011;17300;50.374;8.006;2023-03-01T03:06:41;6.00;;;5.40;;
30519;SDS011;17300;50.374;8.006;2023-03-01T03:09:08;6.63;;;5.30;;
30519;SDS011;17300;50.374;8.006;2023-03-01T03:11:35;5.93;;;5.33;;
30519;SDS011;17300;50.374;8.006;2023-03-01T03:14:04;6.93;;;5.83;;
30519;SDS011;17300;50.374;8.006;2023-03-01T03:16:38;7.73;;;5.90;;
30519;SDS011;17300;50.374;8.006;2023-03-01T03:19:06;6.37;;;5.23;;
30519;SDS011;17300;50.374;8.006;2023-03-01T03:21:33;6.77;;;5.30;;
30519;SDS011;17300;50.374;8.006;2023-03-01T03:24:00;5.80;;;5.20;;
30519;SDS011;17300;50.374;8.006;2023-03-01T03:26:27;6.73;;;5.30;;
30519;SDS011;17300;50.374;8.006;2023-03-01T03:28:54;6.27;;;5.37;;
30519;SDS011;17300;50.374;8.006;2023-03-01T03:31:22;8.43;;;5.53;;
30519;SDS011;17300;50.374;8.006;2023-03-01T03:33:50;7.20;;;5.50;;
30519;SDS011;17300;50.374;8.006;2023-03-01T03:36:17;6.07;;;5.43;;
30519;SDS011;17300;50.374;8.006;2023-03-01T03:38:45;6.67;;;5.23;;
30519;SDS011;17300;50.374;8.006;2023-03-01T03:41:14;7.00;;;5.60;;
30519;SDS011;17300;50.374;8.006;2023-03-01T03:43:44;7.13;;;5.80;;
30519;SDS011;17300;50.374;8.006;2023-03-01T03:46:11;5.77;;;5.20;;
30519;SDS011;17300;50.374;8.006;2023-03-01T03:48:38;5.33;;;4.83;;
30519;SDS011;17300;50.374;8.006;2023-03-01T03:51:09;5.77;;;5.23;;
30519;SDS011;17300;50.374;8.006;2023-03-01T03:53:36;6.23;;;5.20;;
30519;SDS011;17300;50.374;8.006;2023-03-01T03:56:03;6.23;;;5.60;;
30519;SDS011;17300;50.374;8.006;2023-03-01T03:58:30;7.37;;;5.73;;
30519;SDS011;17300;50.374;8.006;2023-03-01T04:00:57;5.73;;;5.23;;
30519;SDS011;17300;50.374;8.006;2023-03-01T04:03:26;6.20;;;5.27;;
30519;SDS011;17300;50.374;8.006;2023-03-01T04:05:53;6.97;;;5.23;;
30519;SDS011;17300;50.374;8.006;2023-03-01T04:08:24;5.80;;;5.23;;
30519;SDS011;17300;50.374;8.006;2023-03-01T04:10:51;6.30;;;5.43;;
30519;SDS011;17300;50.374;8.006;2023-03-01T04:13:22;6.63;;;5.57;;
30519;SDS011;17300;50.374;8.006;2023-03-01T04:15:50;7.20;;;6.10;;
30519;SDS011;17300;50.374;8.006;2023-03-01T04:18:18;6.37;;;5.33;;
30519;SDS011;17300;50.374;8.006;2023-03-01T04:20:46;6.23;;;5.63;;
30519;SDS011;17300;50.374;8.006;2023-03-01T04:23:13;6.50;;;5.80;;
30519;SDS011;17300;50.374;8.006;2023-03-01T04:25:46;6.80;;;5.13;;
30519;SDS011;17300;50.374;8.006;2023-03-01T04:28:18;6.10;;;5.50;;
30519;SDS011;17300;50.374;8.006;2023-03-01T04:30:45;6.47;;;5.47;;
30519;SDS011;17300;50.374;8.006;2023-03-01T04:33:11;6.53;;;5.83;;
30519;SDS011;17300;50.374;8.006;2023-03-01T04:35:38;7.20;;;5.87;;
30519;SDS011;17300;50.374;8.006;2023-03-01T04:38:05;7.33;;;5.83;;
30519;SDS011;17300;50.374;8.006;2023-03-01T04:40:33;5.77;;;5.17;;
30519;SDS011;17300;50.374;8.006;2023-03-01T04:43:01;6.47;;;5.60;;
30519;SDS011;17300;50.374;8.006;2023-03-01T04:45:28;6.97;;;5.80;;
30519;SDS011;17300;50.374;8.006;2023-03-01T04:47:55;8.20;;;6.00;;
30519;SDS011;17300;50.374;8.006;2023-03-01T04:50:23;7.03;;;5.60;;
30519;SDS011;17300;50.374;8.006;2023-03-01T04:52:50;5.87;;;5.27;;
30519;SDS011;17300;50.374;8.006;2023-03-01T04:55:17;6.17;;;5.57;;
30519;SDS011;17300;50.374;8.006;2023-03-01T04:57:44;6.30;;;5.70;;
30519;SDS011;17300;50.374;8.006;2023-03-01T05:00:13;8.07;;;6.10;;
30519;SDS011;17300;50.374;8.006;2023-03-01T05:02:47;8.83;;;6.03;;
30519;SDS011;17300;50.374;8.006;2023-03-01T05:05:18;7.57;;;5.57;;
30519;SDS011;17300;50.374;8.006;2023-03-01T05:07:50;6.60;;;5.43;;
30519;SDS011;17300;50.374;8.006;2023-03-01T05:10:18;6.70;;;5.83;;
30519;SDS011;17300;50.374;8.006;2023-03-01T05:12:45;8.13;;;5.93;;
30519;SDS011;17300;50.374;8.006;2023-03-01T05:15:13;6.67;;;6.07;;
30519;SDS011;17300;50.374;8.006;2023-03-01T05:17:40;6.97;;;5.87;;
30519;SDS011;17300;50.374;8.006;2023-03-01T05:20:07;8.13;;;6.30;;
30519;SDS011;17300;50.374;8.006;2023-03-01T05:22:35;6.83;;;6.10;;
30519;SDS011;17300;50.374;8.006;2023-03-01T05:25:03;7.27;;;6.53;;
30519;SDS011;17300;50.374;8.006;2023-03-01T05:27:30;7.57;;;6.70;;
30519;SDS011;17300;50.374;8.006;2023-03-01T05:29:57;8.03;;;6.77;;
30519;SDS011;17300;50.374;8.006;2023-03-01T05:32:25;9.07;;;6.20;;
30519;SDS011;17300;50.374;8.006;2023-03-01T05:34:51;7.87;;;6.47;;
30519;SDS011;17300;50.374;8.006;2023-03-01T05:37:20;8.77;;;6.50;;
30519;SDS011;17300;50.374;8.006;2023-03-01T05:39:46;8.63;;;6.53;;
30519;SDS011;17300;50.374;8.006;2023-03-01T05:42:15;8.07;;;6.60;;
30519;SDS011;17300;50.374;8.006;2023-03-01T05:44:42;7.80;;;6.37;;
30519;SDS011;17300;50.374;8.006;2023-03-01T05:47:08;7.50;;;6.13;;
30519;SDS011;17300;50.374;8.006;2023-03-01T05:49:36;8.17;;;6.00;;
30519;SDS011;17300;50.374;8.006;2023-03-01T05:52:03;7.27;;;6.00;;
30519;SDS011;17300;50.374;8.006;2023-03-01T05:54:30;6.67;;;5.97;;
30519;SDS011;17300;50.374;8.006;2023-03-01T05:56:56;6.53;;;5.87;;
30519;SDS011;17300;50.374;8.006;2023-03-01T05:59:23;6.87;;;5.80;;
30519;SDS011;17300;50.374;8.006;2023-03-01T06:01:50;7.33;;;5.80;;
30519;SDS011;17300;50.374;8.006;2023-03-01T06:04:16;7.37;;;5.83;;
30519;SDS011;17300;50.374;8.006;2023-03-01T06:06:47;8.77;;;6.80;;
30519;SDS011;17300;50.374;8.006;2023-03-01T06:09:14;6.67;;;5.70;;
30519;SDS011;17300;50.374;8.006;2023-03-01T06:11:40;7.80;;;6.80;;
30519;SDS011;17300;50.374;8.006;2023-03-01T06:14:07;7.93;;;6.20;;
30519;SDS011;17300;50.374;8.006;2023-03-01T06:16:35;10.53;;;6.47;;
30519;SDS011;17300;50.374;8.006;2023-03-01T06:19:02;7.83;;;6.70;;
30519;SDS011;17300;50.374;8.006;2023-03-01T06:21:28;8.90;;;7.30;;
30519;SDS011;17300;50.374;8.006;2023-03-01T06:23:56;8.00;;;6.40;;
30519;SDS011;17300;50.374;8.006;2023-03-01T06:26:23;7.13;;;6.33;;
30519;SDS011;17300;50.374;8.006;2023-03-01T06:28:50;8.53;;;6.57;;
30519;SDS011;17300;50.374;8.006;2023-03-01T06:31:16;9.07;;;6.37;;
30519;SDS011;17300;50.374;8.006;2023-03-01T06:33:43;6.80;;;6.10;;
30519;SDS011;17300;50.374;8.006;2023-03-01T06:36:10;9.47;;;7.67;;
30519;SDS011;17300;50.374;8.006;2023-03-01T06:38:37;16.37;;;13.10;;
30519;SDS011;17300;50.374;8.006;2023-03-01T06:41:07;16.10;;;12.87;;
30519;SDS011;17300;50.374;8.006;2023-03-01T06:43:33;15.70;;;12.83;;
30519;SDS011;17300;50.374;8.006;2023-03-01T06:46:03;14.23;;;11.53;;
30519;SDS011;17300;50.374;8.006;2023-03-01T06:48:30;13.23;;;10.60;;
30519;SDS011;17300;50.374;8.006;2023-03-01T06:50:57;10.47;;;8.80;;
30519;SDS011;17300;50.374;8.006;2023-03-01T06:53:24;10.23;;;9.13;;
30519;SDS011;17300;50.374;8.006;2023-03-01T06:55:53;11.57;;;9.27;;
30519;SDS011;17300;50.374;8.006;2023-03-01T06:58:22;9.70;;;8.43;;
30519;SDS011;17300;50.374;8.006;2023-03-01T07:00:48;10.77;;;8.67;;
30519;SDS011;17300;50.374;8.006;2023-03-01T07:03:15;9.20;;;8.17;;
30519;SDS011;17300;50.374;8.006;2023-03-01T07:05:42;9.73;;;8.60;;
30519;SDS011;17300;50.374;8.006;2023-03-01T07:08:09;11.80;;;9.10;;
30519;SDS011;17300;50.374;8.006;2023-03-01T07:10:36;11.03;;;8.33;;
30519;SDS011;17300;50.374;8.006;2023-03-01T07:13:03;11.40;;;8.60;;
30519;SDS011;17300;50.374;8.006;2023-03-01T07:15:33;12.47;;;9.03;;
30519;SDS011;17300;50.374;8.006;2023-03-01T07:17:59;10.20;;;8.67;;
30519;SDS011;17300;50.374;8.006;2023-03-01T07:20:26;10.27;;;8.93;;
30519;SDS011;17300;50.374;8.006;2023-03-01T07:22:53;10.63;;;9.30;;
30519;SDS011;17300;50.374;8.006;2023-03-01T07:25:21;10.13;;;9.07;;
30519;SDS011;17300;50.374;8.006;2023-03-01T07:27:49;10.23;;;9.13;;
30519;SDS011;17300;50.374;8.006;2023-03-01T07:30:16;10.17;;;9.07;;
30519;SDS011;17300;50.374;8.006;2023-03-01T07:32:44;12.03;;;9.60;;
30519;SDS011;17300;50.374;8.006;2023-03-01T07:35:11;11.27;;;10.07;;
30519;SDS011;17300;50.374;8.006;2023-03-01T07:37:39;12.63;;;10.53;;
30519;SDS011;17300;50.374;8.006;2023-03-01T07:40:07;11.40;;;10.20;;
30519;SDS011;17300;50.374;8.006;2023-03-01T07:42:37;12.63;;;10.60;;
30519;SDS011;17300;50.374;8.006;2023-03-01T07:45:04;11.20;;;10.10;;
30519;SDS011;17300;50.374;8.006;2023-03-01T07:47:32;11.43;;;10.27;;
30519;SDS011;17300;50.374;8.006;2023-03-01T07:50:00;11.80;;;10.17;;
30519;SDS011;17300;50.374;8.006;2023-03-01T07:52:27;12.87;;;10.50;;
30519;SDS011;17300;50.374;8.006;2023-03-01T07:54:54;11.07;;;9.87;;
30519;SDS011;17300;50.374;8.006;2023-03-01T07:57:21;10.40;;;9.33;;
30519;SDS011;17300;50.374;8.006;2023-03-01T07:59:47;10.73;;;8.70;;
30519;SDS011;17300;50.374;8.006;2023-03-01T08:02:14;9.27;;;8.47;;
30519;SDS011;17300;50.374;8.006;2023-03-01T08:04:41;10.87;;;8.77;;
30519;SDS011;17300;50.374;8.006;2023-03-01T08:07:09;8.60;;;7.80;;
30519;SDS011;17300;50.374;8.006;2023-03-01T08:09:36;8.83;;;7.93;;
30519;SDS011;17300;50.374;8.006;2023-03-01T08:12:03;8.83;;;8.03;;
30519;SDS011;17300;50.374;8.006;2023-03-01T08:14:30;8.57;;;7.77;;
30519;SDS011;17300;50.374;8.006;2023-03-01T08:16:57;8.73;;;7.93;;
30519;SDS011;17300;50.374;8.006;2023-03-01T08:19:24;7.97;;;7.23;;
30519;SDS011;17300;50.374;8.006;2023-03-01T08:21:53;7.53;;;6.83;;
30519;SDS011;17300;50.374;8.006;2023-03-01T08:24:21;7.73;;;7.10;;
30519;SDS011;17300;50.374;8.006;2023-03-01T08:26:47;7.60;;;7.00;;
30519;SDS011;17300;50.374;8.006;2023-03-01T08:29:14;8.00;;;7.30;;
30519;SDS011;17300;50.374;8.006;2023-03-01T08:31:41;8.00;;;7.30;;
30519;SDS011;17300;50.374;8.006;2023-03-01T08:34:09;7.95;;;7.25;;
30519;SDS011;17300;50.374;8.006;2023-03-01T08:36:38;7.32;;;6.63;;
30519;SDS011;17300;50.374;8.006;2023-03-01T08:39:06;7.90;;;7.20;;
30519;SDS011;17300;50.374;8.006;2023-03-01T08:41:35;7.55;;;6.82;;
30519;SDS011;17300;50.374;8.006;2023-03-01T08:44:02;7.95;;;7.15;;
30519;SDS011;17300;50.374;8.006;2023-03-01T08:46:30;7.60;;;6.95;;
30519;SDS011;17300;50.374;8.006;2023-03-01T08:48:58;11.27;;;6.88;;
30519;SDS011;17300;50.374;8.006;2023-03-01T08:51:25;8.20;;;6.90;;
30519;SDS011;17300;50.374;8.006;2023-03-01T08:53:54;7.28;;;6.57;;
30519;SDS011;17300;50.374;8.006;2023-03-01T08:56:20;7.13;;;6.43;;
30519;SDS011;17300;50.374;8.006;2023-03-01T08:58:48;7.07;;;6.45;;
30519;SDS011;17300;50.374;8.006;2023-03-01T09:01:16;7.32;;;6.65;;
30519;SDS011;17300;50.374;8.006;2023-03-01T09:03:44;7.32;;;6.63;;
30519;SDS011;17300;50.374;8.006;2023-03-01T09:06:11;7.18;;;6.50;;
30519;SDS011;17300;50.374;8.006;2023-03-01T09:08:40;6.75;;;6.18;;
30519;SDS011;17300;50.374;8.006;2023-03-01T09:11:09;6.97;;;6.38;;
30519;SDS011;17300;50.374;8.006;2023-03-01T09:13:37;7.07;;;6.47;;
30519;SDS011;17300;50.374;8.006;2023-03-01T09:16:06;7.28;;;6.68;;
30519;SDS011;17300;50.374;8.006;2023-03-01T09:18:34;7.07;;;6.47;;
30519;SDS011;17300;50.374;8.006;2023-03-01T09:21:02;7.13;;;6.35;;
30519;SDS011;17300;50.374;8.006;2023-03-01T09:23:32;6.90;;;6.32;;
30519;SDS011;17300;50.374;8.006;2023-03-01T09:25:59;6.90;;;6.30;;
30519;SDS011;17300;50.374;8.006;2023-03-01T09:28:26;6.78;;;6.28;;
30519;SDS011;17300;50.374;8.006;2023-03-01T09:30:53;6.80;;;6.20;;
30519;SDS011;17300;50.374;8.006;2023-03-01T09:33:21;6.53;;;6.00;;
30519;SDS011;17300;50.374;8.006;2023-03-01T09:35:47;6.10;;;5.60;;
30519;SDS011;17300;50.374;8.006;2023-03-01T09:38:14;6.72;;;6.13;;
30519;SDS011;17300;50.374;8.006;2023-03-01T09:40:43;6.75;;;6.15;;
30519;SDS011;17300;50.374;8.006;2023-03-01T09:43:14;6.63;;;6.03;;
30519;SDS011;17300;50.374;8.006;2023-03-01T09:45:45;6.95;;;6.35;;
30519;SDS011;17300;50.374;8.006;2023-03-01T09:48:16;6.28;;;5.72;;
30519;SDS011;17300;50.374;8.006;2023-03-01T09:50:45;6.20;;;5.65;;
30519;SDS011;17300;50.374;8.006;2023-03-01T09:53:13;6.32;;;5.82;;
30519;SDS011;17300;50.374;8.006;2023-03-01T09:55:43;6.95;;;6.35;;
30519;SDS011;17300;50.374;8.006;2023-03-01T09:58:22;6.15;;;5.65;;
30519;SDS011;17300;50.374;8.006;2023-03-01T10:00:57;5.63;;;5.22;;
30519;SDS011;17300;50.374;8.006;2023-03-01T10:03:31;5.90;;;5.40;;
30519;SDS011;17300;50.374;8.006;2023-03-01T10:06:06;6.07;;;5.57;;
30519;SDS011;17300;50.374;8.006;2023-03-01T10:08:38;6.32;;;5.75;;
30519;SDS011;17300;50.374;8.006;2023-03-01T10:11:19;5.75;;;5.25;;
30519;SDS011;17300;50.374;8.006;2023-03-01T10:13:48;5.53;;;5.03;;
30519;SDS011;17300;50.374;8.006;2023-03-01T10:16:21;5.40;;;4.97;;
30519;SDS011;17300;50.374;8.006;2023-03-01T10:18:53;5.80;;;5.30;;
30519;SDS011;17300;50.374;8.006;2023-03-01T10:21:26;6.07;;;5.55;;
30519;SDS011;17300;50.374;8.006;2023-03-01T10:23:56;5.35;;;4.88;;
30519;SDS011;17300;50.374;8.006;2023-03-01T10:26:34;5.93;;;5.38;;
30519;SDS011;17300;50.374;8.006;2023-03-01T10:29:14;5.82;;;5.32;;
30519;SDS011;17300;50.374;8.006;2023-03-01T10:31:41;5.90;;;5.43;;
30519;SDS011;17300;50.374;8.006;2023-03-01T10:34:12;5.68;;;5.13;;
30519;SDS011;17300;50.374;8.006;2023-03-01T10:36:42;6.43;;;5.82;;
30519;SDS011;17300;50.374;8.006;2023-03-01T10:39:15;5.72;;;5.25;;
30519;SDS011;17300;50.374;8.006;2023-03-01T10:41:56;6.78;;;6.18;;
30519;SDS011;17300;50.374;8.006;2023-03-01T10:44:39;6.13;;;5.63;;
30519;SDS011;17300;50.374;8.006;2023-03-01T10:47:15;5.78;;;5.28;;
30519;SDS011;17300;50.374;8.006;2023-03-01T10:49:52;5.90;;;5.40;;
30519;SDS011;17300;50.374;8.006;2023-03-01T10:52:23;6.05;;;5.55;;
30519;SDS011;17300;50.374;8.006;2023-03-01T10:54:52;6.25;;;5.75;;
30519;SDS011;17300;50.374;8.006;2023-03-01T10:57:28;5.97;;;5.47;;
30519;SDS011;17300;50.374;8.006;2023-03-01T11:00:01;6.00;;;5.40;;
30519;SDS011;17300;50.374;8.006;2023-03-01T11:02:41;6.03;;;5.50;;
30519;SDS011;17300;50.374;8.006;2023-03-01T11:05:14;6.47;;;5.82;;
30519;SDS011;17300;50.374;8.006;2023-03-01T11:07:49;5.70;;;5.20;;
30519;SDS011;17300;50.374;8.006;2023-03-01T11:10:17;5.93;;;5.43;;
30519;SDS011;17300;50.374;8.006;2023-03-01T11:12:45;5.53;;;5.07;;
30519;SDS011;17300;50.374;8.006;2023-03-01T11:15:20;5.70;;;5.20;;
30519;SDS011;17300;50.374;8.006;2023-03-01T11:17:51;6.75;;;5.38;;
30519;SDS011;17300;50.374;8.006;2023-03-01T11:20:23;6.30;;;5.80;;
30519;SDS011;17300;50.374;8.006;2023-03-01T11:22:54;5.57;;;5.07;;
30519;SDS011;17300;50.374;8.006;2023-03-01T11:25:24;5.63;;;5.10;;
30519;SDS011;17300;50.374;8.006;2023-03-01T11:27:54;5.65;;;5.15;;
30519;SDS011;17300;50.374;8.006;2023-03-01T11:30:23;6.60;;;6.00;;
30519;SDS011;17300;50.374;8.006;2023-03-01T11:32:56;5.70;;;5.22;;
30519;SDS011;17300;50.374;8.006;2023-03-01T11:35:31;5.85;;;5.35;;
30519;SDS011;17300;50.374;8.006;2023-03-01T11:38:05;6.43;;;5.93;;
30519;SDS011;17300;50.374;8.006;2023-03-01T11:40:43;6.28;;;5.78;;
30519;SDS011;17300;50.374;8.006;2023-03-01T11:43:15;6.18;;;5.65;;
30519;SDS011;17300;50.374;8.006;2023-03-01T11:45:56;6.68;;;6.07;;
30519;SDS011;17300;50.374;8.006;2023-03-01T11:48:46;7.22;;;6.45;;
30519;SDS011;17300;50.374;8.006;2023-03-01T11:51:21;5.73;;;5.30;;
30519;SDS011;17300;50.374;8.006;2023-03-01T11:53:59;5.50;;;5.07;;
30519;SDS011;17300;50.374;8.006;2023-03-01T11:56:34;5.53;;;5.13;;
30519;SDS011;17300;50.374;8.006;2023-03-01T11:59:13;6.20;;;5.60;;
30519;SDS011;17300;50.374;8.006;2023-03-01T12:01:56;5.97;;;5.47;;
30519;SDS011;17300;50.374;8.006;2023-03-01T12:04:53;5.77;;;5.27;;
30519;SDS011;17300;50.374;8.006;2023-03-01T12:07:41;5.33;;;4.93;;
30519;SDS011;17300;50.374;8.006;2023-03-01T12:10:25;4.93;;;4.50;;
30519;SDS011;17300;50.374;8.006;2023-03-01T12:12:58;5.43;;;5.03;;
30519;SDS011;17300;50.374;8.006;2023-03-01T12:15:50;5.43;;;4.93;;
30519;SDS011;17300;50.374;8.006;2023-03-01T12:18:42;5.67;;;5.17;;
30519;SDS011;17300;50.374;8.006;2023-03-01T12:21:21;5.30;;;4.90;;
30519;SDS011;17300;50.374;8.006;2023-03-01T12:24:06;5.33;;;4.87;;
30519;SDS011;17300;50.374;8.006;2023-03-01T12:26:47;5.83;;;5.33;;
30519;SDS011;17300;50.374;8.006;2023-03-01T12:29:33;5.47;;;4.73;;
30519;SDS011;17300;50.374;8.006;2023-03-01T12:32:11;5.17;;;4.67;;
30519;SDS011;17300;50.374;8.006;2023-03-01T12:35:06;5.43;;;4.93;;
30519;SDS011;17300;50.374;8.006;2023-03-01T12:37:47;5.60;;;5.00;;
30519;SDS011;17300;50.374;8.006;2023-03-01T12:40:31;5.30;;;4.83;;
30519;SDS011;17300;50.374;8.006;2023-03-01T12:43:10;5.23;;;4.73;;
30519;SDS011;17300;50.374;8.006;2023-03-01T12:45:50;4.97;;;4.57;;
30519;SDS011;17300;50.374;8.006;2023-03-01T12:48:59;4.73;;;4.33;;
30519;SDS011;17300;50.374;8.006;2023-03-01T12:52:13;4.83;;;3.93;;
30519;SDS011;17300;50.374;8.006;2023-03-01T12:55:29;4.20;;;3.80;;
30519;SDS011;17300;50.374;8.006;2023-03-01T12:58:04;4.77;;;4.27;;
30519;SDS011;17300;50.374;8.006;2023-03-01T13:04:36;4.90;;;4.50;;
30519;SDS011;17300;50.374;8.006;2023-03-01T13:08:07;4.30;;;3.90;;
30519;SDS011;17300;50.374;8.006;2023-03-01T13:11:14;4.40;;;4.00;;
30519;SDS011;17300;50.374;8.006;2023-03-01T13:20:47;4.83;;;4.20;;
30519;SDS011;17300;50.374;8.006;2023-03-01T13:23:23;4.80;;;4.10;;
30519;SDS011;17300;50.374;8.006;2023-03-01T13:28:51;4.77;;;4.27;;
30519;SDS011;17300;50.374;8.006;2023-03-01T13:37:22;4.53;;;4.13;;
30519;SDS011;17300;50.374;8.006;2023-03-01T13:39:55;4.47;;;4.07;;
30519;SDS011;17300;50.374;8.006;2023-03-01T13:42:40;4.37;;;3.97;;
30519;SDS011;17300;50.374;8.006;2023-03-01T13:45:21;4.20;;;3.80;;
30519;SDS011;17300;50.374;8.006;2023-03-01T13:47:52;4.33;;;3.93;;
30519;SDS011;17300;50.374;8.006;2023-03-01T13:50:24;5.03;;;4.10;;
30519;SDS011;17300;50.374;8.006;2023-03-01T13:52:55;4.97;;;4.47;;
30519;SDS011;17300;50.374;8.006;2023-03-01T13:55:25;4.87;;;4.40;;
30519;SDS011;17300;50.374;8.006;2023-03-01T13:57:59;4.97;;;4.47;;
30519;SDS011;17300;50.374;8.006;2023-03-01T14:00:28;4.70;;;4.20;;
30519;SDS011;17300;50.374;8.006;2023-03-01T14:05:57;4.20;;;3.80;;
30519;SDS011;17300;50.374;8.006;2023-03-01T14:08:27;4.43;;;4.03;;
30519;SDS011;17300;50.374;8.006;2023-03-01T14:16:50;5.20;;;4.10;;
30519;SDS011;17300;50.374;8.006;2023-03-01T14:19:27;5.20;;;4.50;;
30519;SDS011;17300;50.374;8.006;2023-03-01T14:21:59;4.30;;;3.90;;
30519;SDS011;17300;50.374;8.006;2023-03-01T14:24:44;4.07;;;3.67;;
30519;SDS011;17300;50.374;8.006;2023-03-01T14:27:14;4.10;;;3.70;;
30519;SDS011;17300;50.374;8.006;2023-03-01T14:29:42;4.27;;;3.87;;
30519;SDS011;17300;50.374;8.006;2023-03-01T14:32:12;3.90;;;3.60;;
30519;SDS011;17300;50.374;8.006;2023-03-01T14:34:45;5.17;;;3.70;;
30519;SDS011;17300;50.374;8.006;2023-03-01T14:37:20;4.37;;;3.97;;
30519;SDS011;17300;50.374;8.006;2023-03-01T14:39:49;3.80;;;3.40;;
30519;SDS011;17300;50.374;8.006;2023-03-01T14:42:17;5.47;;;4.03;;
30519;SDS011;17300;50.374;8.006;2023-03-01T14:44:46;4.87;;;4.10;;
30519;SDS011;17300;50.374;8.006;2023-03-01T14:47:16;4.30;;;3.77;;
30519;SDS011;17300;50.374;8.006;2023-03-01T14:49:52;3.73;;;3.43;;
30519;SDS011;17300;50.374;8.006;2023-03-01T14:52:24;3.63;;;3.20;;
30519;SDS011;17300;50.374;8.006;2023-03-01T14:54:57;4.10;;;3.70;;
30519;SDS011;17300;50.374;8.006;2023-03-01T14:57:25;4.73;;;4.20;;
30519;SDS011;17300;50.374;8.006;2023-03-01T14:59:52;4.80;;;3.77;;
30519;SDS011;17300;50.374;8.006;2023-03-01T15:02:20;4.17;;;3.77;;
30519;SDS011;17300;50.374;8.006;2023-03-01T15:04:49;4.73;;;4.17;;
30519;SDS011;17300;50.374;8.006;2023-03-01T15:07:18;5.30;;;3.70;;
30519;SDS011;17300;50.374;8.006;2023-03-01T15:09:45;4.10;;;3.67;;
30519;SDS011;17300;50.374;8.006;2023-03-01T15:12:35;3.43;;;3.13;;
30519;SDS011;17300;50.374;8.006;2023-03-01T15:15:19;4.53;;;3.73;;
30519;SDS011;17300;50.374;8.006;2023-03-01T15:17:57;3.60;;;3.30;;
30519;SDS011;17300;50.374;8.006;2023-03-01T15:20:25;4.13;;;3.57;;
30519;SDS011;17300;50.374;8.006;2023-03-01T15:22:55;4.57;;;3.90;;
30519;SDS011;17300;50.374;8.006;2023-03-01T15:25:23;4.70;;;4.20;;
30519;SDS011;17300;50.374;8.006;2023-03-01T15:27:53;4.17;;;3.77;;
30519;SDS011;17300;50.374;8.006;2023-03-01T15:30:23;4.60;;;4.00;;
30519;SDS011;17300;50.374;8.006;2023-03-01T15:35:45;4.27;;;3.87;;
30519;SDS011;17300;50.374;8.006;2023-03-01T15:38:29;4.00;;;3.50;;